sensor_id;sensor_type;location;lat;lon;timestamp;temperature;humidity
4435;DHT22;46552;52.150;8.428;2023-12-29T00:00:02;10.70;99.90
4435;DHT22;46552;52.150;8.428;2023-12-29T00:02:30;10.70;99.90
4435;DHT22;46552;52.150;8.428;2023-12-29T00:04:58;10.70;99.90
4435;DHT22;46552;52.150;8.428;2023-12-29T00:07:25;10.60;99.90
4435;DHT22;46552;52.150;8.428;2023-12-29T00:09:53;10.60;99.90
4435;DHT22;46552;52.150;8.428;2023-12-29T00:12:20;10.60;99.90
4435;DHT22;46552;52.150;8.428;2023-12-29T00:14:48;10.70;99.90
4435;DHT22;46552;52.150;8.428;2023-12-29T00:17:16;10.70;99.90
4435;DHT22;46552;52.150;8.428;2023-12-29T00:19:44;10.70;99.90
4435;DHT22;46552;52.150;8.428;2023-12-29T00:22:12;10.70;99.90
4435;DHT22;46552;52.150;8.428;2023-12-29T00:24:39;10.70;99.90
4435;DHT22;46552;52.150;8.428;2023-12-29T00:27:06;10.70;99.90
4435;DHT22;46552;52.150;8.428;2023-12-29T00:29:34;10.70;99.90
4435;DHT22;46552;52.150;8.428;2023-12-29T00:32:01;10.70;99.90
4435;DHT22;46552;52.150;8.428;2023-12-29T00:34:29;10.70;99.90
4435;DHT22;46552;52.150;8.428;2023-12-29T00:37:00;10.70;99.90
4435;DHT22;46552;52.150;8.428;2023-12-29T00:39:27;10.70;99.90
4435;DHT22;46552;52.150;8.428;2023-12-29T00:41:57;10.70;99.90
4435;DHT22;46552;52.150;8.428;2023-12-29T00:44:25;10.70;99.90
4435;DHT22;46552;52.150;8.428;2023-12-29T00:46:52;10.70;99.90
4435;DHT22;46552;52.150;8.428;2023-12-29T00:49:19;10.70;99.90
4435;DHT22;46552;52.150;8.428;2023-12-29T00:51:47;10.70;99.90
4435;DHT22;46552;52.150;8.428;2023-12-29T00:54:15;10.70;99.90
4435;DHT22;46552;52.150;8.428;2023-12-29T00:56:48;10.60;99.90
4435;DHT22;46552;52.150;8.428;2023-12-29T00:59:17;10.50;99.90
4435;DHT22;46552;52.150;8.428;2023-12-29T01:01:44;10.50;99.90
4435;DHT22;46552;52.150;8.428;2023-12-29T01:04:12;10.50;99.90
4435;DHT22;46552;52.150;8.428;2023-12-29T01:06:39;10.40;99.90
4435;DHT22;46552;52.150;8.428;2023-12-29T01:09:06;10.40;99.90
4435;DHT22;46552;52.150;8.428;2023-12-29T01:11:38;10.40;99.90
4435;DHT22;46552;52.150;8.428;2023-12-29T01:14:05;10.50;99.90
4435;DHT22;46552;52.150;8.428;2023-12-29T01:16:32;10.50;99.90
4435;DHT22;46552;52.150;8.428;2023-12-29T01:18:59;10.50;99.90
4435;DHT22;46552;52.150;8.428;2023-12-29T01:21:26;10.50;99.90
4435;DHT22;46552;52.150;8.428;2023-12-29T01:23:54;10.50;99.90
4435;DHT22;46552;52.150;8.428;2023-12-29T01:26:21;10.50;99.90
4435;DHT22;46552;52.150;8.428;2023-12-29T01:28:49;10.50;99.90
4435;DHT22;46552;52.150;8.428;2023-12-29T01:31:17;10.50;99.90
4435;DHT22;46552;52.150;8.428;2023-12-29T01:33:44;10.60;99.90
4435;DHT22;46552;52.150;8.428;2023-12-29T01:36:17;10.60;99.90
4435;DHT22;46552;52.150;8.428;2023-12-29T01:38:45;10.60;99.90
4435;DHT22;46552;52.150;8.428;2023-12-29T01:41:12;10.60;99.90
4435;DHT22;46552;52.150;8.428;2023-12-29T01:46:41;10.70;99.90
4435;DHT22;46552;52.150;8.428;2023-12-29T01:49:09;10.70;99.90
4435;DHT22;46552;52.150;8.428;2023-12-29T01:51:36;10.70;99.90
4435;DHT22;46552;52.150;8.428;2023-12-29T01:54:03;10.70;99.90
4435;DHT22;46552;52.150;8.428;2023-12-29T01:56:30;10.70;99.90
4435;DHT22;46552;52.150;8.428;2023-12-29T01:58:57;10.70;99.90
4435;DHT22;46552;52.150;8.428;2023-12-29T02:01:25;10.80;99.90
4435;DHT22;46552;52.150;8.428;2023-12-29T02:03:54;10.80;99.90
4435;DHT22;46552;52.150;8.428;2023-12-29T02:06:21;10.80;99.90
4435;DHT22;46552;52.150;8.428;2023-12-29T02:08:49;10.80;99.90
4435;DHT22;46552;52.150;8.428;2023-12-29T02:11:17;10.80;99.90
4435;DHT22;46552;52.150;8.428;2023-12-29T02:13:45;10.70;99.90
4435;DHT22;46552;52.150;8.428;2023-12-29T02:16:19;10.70;99.90
4435;DHT22;46552;52.150;8.428;2023-12-29T02:18:50;10.60;99.90
4435;DHT22;46552;52.150;8.428;2023-12-29T02:21:24;10.60;99.90
4435;DHT22;46552;52.150;8.428;2023-12-29T02:23:51;10.60;99.90
4435;DHT22;46552;52.150;8.428;2023-12-29T02:26:22;10.60;99.90
4435;DHT22;46552;52.150;8.428;2023-12-29T02:28:58;10.60;99.90
4435;DHT22;46552;52.150;8.428;2023-12-29T02:31:28;10.70;99.90
4435;DHT22;46552;52.150;8.428;2023-12-29T02:33:57;10.70;99.90
4435;DHT22;46552;52.150;8.428;2023-12-29T02:36:26;10.70;99.90
4435;DHT22;46552;52.150;8.428;2023-12-29T02:38:54;10.80;99.90
4435;DHT22;46552;52.150;8.428;2023-12-29T02:41:23;10.80;99.90
4435;DHT22;46552;52.150;8.428;2023-12-29T02:43:50;10.80;99.90
4435;DHT22;46552;52.150;8.428;2023-12-29T02:46:17;10.80;99.90
4435;DHT22;46552;52.150;8.428;2023-12-29T02:48:47;10.70;99.90
4435;DHT22;46552;52.150;8.428;2023-12-29T02:51:16;10.70;99.90
4435;DHT22;46552;52.150;8.428;2023-12-29T02:53:43;10.70;99.90
4435;DHT22;46552;52.150;8.428;2023-12-29T02:56:11;10.60;99.90
4435;DHT22;46552;52.150;8.428;2023-12-29T02:58:39;10.60;99.90
4435;DHT22;46552;52.150;8.428;2023-12-29T03:01:06;10.50;99.90
4435;DHT22;46552;52.150;8.428;2023-12-29T03:03:34;10.50;99.90
4435;DHT22;46552;52.150;8.428;2023-12-29T03:06:01;10.40;99.90
4435;DHT22;46552;52.150;8.428;2023-12-29T03:08:29;10.40;99.90
4435;DHT22;46552;52.150;8.428;2023-12-29T03:10:56;10.30;99.90
4435;DHT22;46552;52.150;8.428;2023-12-29T03:13:24;10.30;99.90
4435;DHT22;46552;52.150;8.428;2023-12-29T03:15:52;10.20;99.90
4435;DHT22;46552;52.150;8.428;2023-12-29T03:18:19;10.20;99.90
4435;DHT22;46552;52.150;8.428;2023-12-29T03:20:46;10.10;99.90
4435;DHT22;46552;52.150;8.428;2023-12-29T03:23:13;10.10;99.90
4435;DHT22;46552;52.150;8.428;2023-12-29T03:25:42;10.10;99.90
4435;DHT22;46552;52.150;8.428;2023-12-29T03:28:10;10.10;99.90
4435;DHT22;46552;52.150;8.428;2023-12-29T03:30:37;10.10;99.90
4435;DHT22;46552;52.150;8.428;2023-12-29T03:33:06;10.10;99.90
4435;DHT22;46552;52.150;8.428;2023-12-29T03:35:33;10.10;99.90
4435;DHT22;46552;52.150;8.428;2023-12-29T03:38:00;10.10;99.90
4435;DHT22;46552;52.150;8.428;2023-12-29T03:40:28;10.10;99.90
4435;DHT22;46552;52.150;8.428;2023-12-29T03:42:55;10.10;99.90
4435;DHT22;46552;52.150;8.428;2023-12-29T03:45:22;10.10;99.90
4435;DHT22;46552;52.150;8.428;2023-12-29T03:47:49;10.00;99.90
4435;DHT22;46552;52.150;8.428;2023-12-29T03:50:18;10.00;99.90
4435;DHT22;46552;52.150;8.428;2023-12-29T03:52:45;10.00;99.90
4435;DHT22;46552;52.150;8.428;2023-12-29T03:55:15;10.00;99.90
4435;DHT22;46552;52.150;8.428;2023-12-29T03:57:42;10.00;99.90
4435;DHT22;46552;52.150;8.428;2023-12-29T04:00:12;10.00;99.90
4435;DHT22;46552;52.150;8.428;2023-12-29T04:02:39;10.00;99.90
4435;DHT22;46552;52.150;8.428;2023-12-29T04:05:08;10.00;99.90
4435;DHT22;46552;52.150;8.428;2023-12-29T04:07:39;10.00;99.90
4435;DHT22;46552;52.150;8.428;2023-12-29T04:10:07;9.90;99.90
4435;DHT22;46552;52.150;8.428;2023-12-29T04:12:35;9.80;99.90
4435;DHT22;46552;52.150;8.428;2023-12-29T04:15:03;9.70;99.90
4435;DHT22;46552;52.150;8.428;2023-12-29T04:17:31;9.70;99.90
4435;DHT22;46552;52.150;8.428;2023-12-29T04:19:59;9.70;99.90
4435;DHT22;46552;52.150;8.428;2023-12-29T04:22:26;9.70;99.90
4435;DHT22;46552;52.150;8.428;2023-12-29T04:24:55;9.70;99.90
4435;DHT22;46552;52.150;8.428;2023-12-29T04:27:22;9.60;99.90
4435;DHT22;46552;52.150;8.428;2023-12-29T04:29:49;9.60;99.90
4435;DHT22;46552;52.150;8.428;2023-12-29T04:32:17;9.60;99.90
4435;DHT22;46552;52.150;8.428;2023-12-29T04:34:44;9.60;99.90
4435;DHT22;46552;52.150;8.428;2023-12-29T04:37:11;9.60;99.90
4435;DHT22;46552;52.150;8.428;2023-12-29T04:39:40;9.60;99.90
4435;DHT22;46552;52.150;8.428;2023-12-29T04:42:09;9.60;99.90
4435;DHT22;46552;52.150;8.428;2023-12-29T04:44:36;9.60;99.90
4435;DHT22;46552;52.150;8.428;2023-12-29T04:47:03;9.60;99.90
4435;DHT22;46552;52.150;8.428;2023-12-29T04:49:30;9.60;99.90
4435;DHT22;46552;52.150;8.428;2023-12-29T04:51:57;9.60;99.90
4435;DHT22;46552;52.150;8.428;2023-12-29T04:54:25;9.60;99.90
4435;DHT22;46552;52.150;8.428;2023-12-29T04:56:52;9.60;99.90
4435;DHT22;46552;52.150;8.428;2023-12-29T04:59:23;9.70;99.90
4435;DHT22;46552;52.150;8.428;2023-12-29T05:01:52;9.70;99.90
4435;DHT22;46552;52.150;8.428;2023-12-29T05:04:19;9.70;99.90
4435;DHT22;46552;52.150;8.428;2023-12-29T05:06:46;9.70;99.90
4435;DHT22;46552;52.150;8.428;2023-12-29T05:09:13;9.70;99.90
4435;DHT22;46552;52.150;8.428;2023-12-29T05:11:40;9.70;99.90
4435;DHT22;46552;52.150;8.428;2023-12-29T05:14:07;9.70;99.90
4435;DHT22;46552;52.150;8.428;2023-12-29T05:16:36;9.80;99.90
4435;DHT22;46552;52.150;8.428;2023-12-29T05:19:04;9.80;99.90
4435;DHT22;46552;52.150;8.428;2023-12-29T05:21:31;9.80;99.90
4435;DHT22;46552;52.150;8.428;2023-12-29T05:23:58;9.80;99.90
4435;DHT22;46552;52.150;8.428;2023-12-29T05:26:25;9.80;99.90
4435;DHT22;46552;52.150;8.428;2023-12-29T05:28:53;9.80;99.90
4435;DHT22;46552;52.150;8.428;2023-12-29T05:31:20;9.80;99.90
4435;DHT22;46552;52.150;8.428;2023-12-29T05:33:49;9.80;99.90
4435;DHT22;46552;52.150;8.428;2023-12-29T05:36:16;9.80;99.90
4435;DHT22;46552;52.150;8.428;2023-12-29T05:38:45;9.80;99.90
4435;DHT22;46552;52.150;8.428;2023-12-29T05:41:13;9.80;99.90
4435;DHT22;46552;52.150;8.428;2023-12-29T05:43:41;9.90;99.90
4435;DHT22;46552;52.150;8.428;2023-12-29T05:46:10;9.90;99.90
4435;DHT22;46552;52.150;8.428;2023-12-29T05:48:37;9.90;99.90
4435;DHT22;46552;52.150;8.428;2023-12-29T05:51:08;9.90;99.90
4435;DHT22;46552;52.150;8.428;2023-12-29T05:53:36;9.90;99.90
4435;DHT22;46552;52.150;8.428;2023-12-29T05:56:07;10.00;99.90
4435;DHT22;46552;52.150;8.428;2023-12-29T05:58:35;10.00;99.90
4435;DHT22;46552;52.150;8.428;2023-12-29T06:01:03;10.00;99.90
4435;DHT22;46552;52.150;8.428;2023-12-29T06:03:30;10.00;99.90
4435;DHT22;46552;52.150;8.428;2023-12-29T06:05:58;10.00;99.90
4435;DHT22;46552;52.150;8.428;2023-12-29T06:08:27;10.10;99.90
4435;DHT22;46552;52.150;8.428;2023-12-29T06:10:54;10.10;99.90
4435;DHT22;46552;52.150;8.428;2023-12-29T06:13:22;10.10;99.90
4435;DHT22;46552;52.150;8.428;2023-12-29T06:15:50;10.10;99.90
4435;DHT22;46552;52.150;8.428;2023-12-29T06:18:17;10.20;99.90
4435;DHT22;46552;52.150;8.428;2023-12-29T06:20:44;10.20;99.90
4435;DHT22;46552;52.150;8.428;2023-12-29T06:23:11;10.20;99.90
4435;DHT22;46552;52.150;8.428;2023-12-29T06:25:40;10.20;99.90
4435;DHT22;46552;52.150;8.428;2023-12-29T06:28:08;10.20;99.90
4435;DHT22;46552;52.150;8.428;2023-12-29T06:30:35;10.20;99.90
4435;DHT22;46552;52.150;8.428;2023-12-29T06:33:02;10.20;99.90
4435;DHT22;46552;52.150;8.428;2023-12-29T06:35:30;10.20;99.90
4435;DHT22;46552;52.150;8.428;2023-12-29T06:37:57;10.20;99.90
4435;DHT22;46552;52.150;8.428;2023-12-29T06:40:24;10.20;99.90
4435;DHT22;46552;52.150;8.428;2023-12-29T06:42:53;10.20;99.90
4435;DHT22;46552;52.150;8.428;2023-12-29T06:45:21;10.20;99.90
4435;DHT22;46552;52.150;8.428;2023-12-29T06:47:48;10.20;99.90
4435;DHT22;46552;52.150;8.428;2023-12-29T06:50:16;10.20;99.90
4435;DHT22;46552;52.150;8.428;2023-12-29T06:52:43;10.20;99.90
4435;DHT22;46552;52.150;8.428;2023-12-29T06:55:10;10.20;99.90
4435;DHT22;46552;52.150;8.428;2023-12-29T06:57:37;10.20;99.90
4435;DHT22;46552;52.150;8.428;2023-12-29T07:00:07;10.20;99.90
4435;DHT22;46552;52.150;8.428;2023-12-29T07:02:38;10.20;99.90
4435;DHT22;46552;52.150;8.428;2023-12-29T07:05:06;10.20;99.90
4435;DHT22;46552;52.150;8.428;2023-12-29T07:07:35;10.30;99.90
4435;DHT22;46552;52.150;8.428;2023-12-29T07:10:03;10.30;99.90
4435;DHT22;46552;52.150;8.428;2023-12-29T07:12:31;10.30;99.90
4435;DHT22;46552;52.150;8.428;2023-12-29T07:14:59;10.30;99.90
4435;DHT22;46552;52.150;8.428;2023-12-29T07:17:28;10.30;99.90
4435;DHT22;46552;52.150;8.428;2023-12-29T07:19:55;10.30;99.90
4435;DHT22;46552;52.150;8.428;2023-12-29T07:22:22;10.30;99.90
4435;DHT22;46552;52.150;8.428;2023-12-29T07:24:49;10.30;99.90
4435;DHT22;46552;52.150;8.428;2023-12-29T07:27:17;10.30;99.90
4435;DHT22;46552;52.150;8.428;2023-12-29T07:29:44;10.30;99.90
4435;DHT22;46552;52.150;8.428;2023-12-29T07:32:11;10.30;99.90
4435;DHT22;46552;52.150;8.428;2023-12-29T07:34:40;10.30;99.90
4435;DHT22;46552;52.150;8.428;2023-12-29T07:37:07;10.30;99.90
4435;DHT22;46552;52.150;8.428;2023-12-29T07:39:37;10.30;99.90
4435;DHT22;46552;52.150;8.428;2023-12-29T07:42:04;10.30;99.90
4435;DHT22;46552;52.150;8.428;2023-12-29T07:44:32;10.30;99.90
4435;DHT22;46552;52.150;8.428;2023-12-29T07:46:59;10.30;99.90
4435;DHT22;46552;52.150;8.428;2023-12-29T07:49:26;10.30;99.90
4435;DHT22;46552;52.150;8.428;2023-12-29T07:51:55;10.30;99.90
4435;DHT22;46552;52.150;8.428;2023-12-29T07:54:25;10.30;99.90
4435;DHT22;46552;52.150;8.428;2023-12-29T07:56:52;10.30;99.90
4435;DHT22;46552;52.150;8.428;2023-12-29T07:59:19;10.30;99.90
4435;DHT22;46552;52.150;8.428;2023-12-29T08:01:47;10.30;99.90
4435;DHT22;46552;52.150;8.428;2023-12-29T08:04:14;10.30;99.90
4435;DHT22;46552;52.150;8.428;2023-12-29T08:06:42;10.40;99.90
4435;DHT22;46552;52.150;8.428;2023-12-29T08:09:10;10.30;99.90
4435;DHT22;46552;52.150;8.428;2023-12-29T08:11:37;10.30;99.90
4435;DHT22;46552;52.150;8.428;2023-12-29T08:14:05;10.40;99.90
4435;DHT22;46552;52.150;8.428;2023-12-29T08:16:37;10.40;99.90
4435;DHT22;46552;52.150;8.428;2023-12-29T08:19:05;10.40;99.90
4435;DHT22;46552;52.150;8.428;2023-12-29T08:21:32;10.40;99.90
4435;DHT22;46552;52.150;8.428;2023-12-29T08:24:00;10.40;99.90
4435;DHT22;46552;52.150;8.428;2023-12-29T08:26:30;10.40;99.90
4435;DHT22;46552;52.150;8.428;2023-12-29T08:28:57;10.40;99.90
4435;DHT22;46552;52.150;8.428;2023-12-29T08:31:24;10.40;99.90
4435;DHT22;46552;52.150;8.428;2023-12-29T08:33:54;10.40;99.90
4435;DHT22;46552;52.150;8.428;2023-12-29T08:36:22;10.40;99.90
4435;DHT22;46552;52.150;8.428;2023-12-29T08:38:49;10.30;99.90
4435;DHT22;46552;52.150;8.428;2023-12-29T08:41:18;10.30;99.90
4435;DHT22;46552;52.150;8.428;2023-12-29T08:43:47;10.30;99.90
4435;DHT22;46552;52.150;8.428;2023-12-29T08:46:14;10.20;99.90
4435;DHT22;46552;52.150;8.428;2023-12-29T08:48:41;10.20;99.90
4435;DHT22;46552;52.150;8.428;2023-12-29T08:51:09;10.10;99.90
4435;DHT22;46552;52.150;8.428;2023-12-29T08:53:36;10.10;99.90
4435;DHT22;46552;52.150;8.428;2023-12-29T08:56:04;10.00;99.90
4435;DHT22;46552;52.150;8.428;2023-12-29T08:58:32;9.90;99.90
4435;DHT22;46552;52.150;8.428;2023-12-29T09:01:00;9.90;99.90
4435;DHT22;46552;52.150;8.428;2023-12-29T09:03:27;9.80;99.90
4435;DHT22;46552;52.150;8.428;2023-12-29T09:05:55;9.80;99.90
4435;DHT22;46552;52.150;8.428;2023-12-29T09:08:25;9.80;99.90
4435;DHT22;46552;52.150;8.428;2023-12-29T09:10:52;9.80;99.90
4435;DHT22;46552;52.150;8.428;2023-12-29T09:13:19;9.70;99.90
4435;DHT22;46552;52.150;8.428;2023-12-29T09:15:49;9.70;99.90
4435;DHT22;46552;52.150;8.428;2023-12-29T09:18:17;9.70;99.90
4435;DHT22;46552;52.150;8.428;2023-12-29T09:20:44;9.70;99.90
4435;DHT22;46552;52.150;8.428;2023-12-29T09:23:12;9.70;99.90
4435;DHT22;46552;52.150;8.428;2023-12-29T09:25:40;9.70;99.90
4435;DHT22;46552;52.150;8.428;2023-12-29T09:28:07;9.60;99.90
4435;DHT22;46552;52.150;8.428;2023-12-29T09:30:35;9.70;99.90
4435;DHT22;46552;52.150;8.428;2023-12-29T09:33:02;9.70;99.90
4435;DHT22;46552;52.150;8.428;2023-12-29T09:35:32;9.60;99.90
4435;DHT22;46552;52.150;8.428;2023-12-29T09:37:59;9.70;99.90
4435;DHT22;46552;52.150;8.428;2023-12-29T09:40:27;9.70;99.90
4435;DHT22;46552;52.150;8.428;2023-12-29T09:42:55;9.70;99.90
4435;DHT22;46552;52.150;8.428;2023-12-29T09:45:24;9.60;99.90
4435;DHT22;46552;52.150;8.428;2023-12-29T09:47:52;9.60;99.90
4435;DHT22;46552;52.150;8.428;2023-12-29T09:50:21;9.60;99.90
4435;DHT22;46552;52.150;8.428;2023-12-29T09:52:51;9.60;99.90
4435;DHT22;46552;52.150;8.428;2023-12-29T09:55:19;9.60;99.90
4435;DHT22;46552;52.150;8.428;2023-12-29T09:57:47;9.70;99.90
4435;DHT22;46552;52.150;8.428;2023-12-29T10:00:16;9.70;99.90
4435;DHT22;46552;52.150;8.428;2023-12-29T10:02:44;9.70;99.90
4435;DHT22;46552;52.150;8.428;2023-12-29T10:05:11;9.70;99.90
4435;DHT22;46552;52.150;8.428;2023-12-29T10:07:39;9.80;99.90
4435;DHT22;46552;52.150;8.428;2023-12-29T10:10:14;9.80;99.90
4435;DHT22;46552;52.150;8.428;2023-12-29T10:12:42;9.80;99.90
4435;DHT22;46552;52.150;8.428;2023-12-29T10:15:15;9.80;99.90
4435;DHT22;46552;52.150;8.428;2023-12-29T10:17:51;9.80;99.90
4435;DHT22;46552;52.150;8.428;2023-12-29T10:20:29;9.80;99.90
4435;DHT22;46552;52.150;8.428;2023-12-29T10:23:06;9.90;99.90
4435;DHT22;46552;52.150;8.428;2023-12-29T10:25:36;9.90;99.90
4435;DHT22;46552;52.150;8.428;2023-12-29T10:28:03;9.90;99.90
4435;DHT22;46552;52.150;8.428;2023-12-29T10:30:35;9.90;99.90
4435;DHT22;46552;52.150;8.428;2023-12-29T10:33:04;9.90;99.90
4435;DHT22;46552;52.150;8.428;2023-12-29T10:35:31;9.90;99.90
4435;DHT22;46552;52.150;8.428;2023-12-29T10:38:09;10.00;99.90
4435;DHT22;46552;52.150;8.428;2023-12-29T10:40:38;10.00;99.90
4435;DHT22;46552;52.150;8.428;2023-12-29T10:43:06;10.00;99.90
4435;DHT22;46552;52.150;8.428;2023-12-29T10:45:34;10.00;99.90
4435;DHT22;46552;52.150;8.428;2023-12-29T10:48:02;10.00;99.90
4435;DHT22;46552;52.150;8.428;2023-12-29T10:50:29;10.10;99.90
4435;DHT22;46552;52.150;8.428;2023-12-29T10:53:10;10.10;99.90
4435;DHT22;46552;52.150;8.428;2023-12-29T10:55:40;10.10;99.90
4435;DHT22;46552;52.150;8.428;2023-12-29T10:58:07;10.10;99.90
4435;DHT22;46552;52.150;8.428;2023-12-29T11:00:35;10.20;99.90
4435;DHT22;46552;52.150;8.428;2023-12-29T11:03:03;10.20;99.90
4435;DHT22;46552;52.150;8.428;2023-12-29T11:05:32;10.20;99.90
4435;DHT22;46552;52.150;8.428;2023-12-29T11:08:00;10.30;99.90
4435;DHT22;46552;52.150;8.428;2023-12-29T11:10:28;10.30;99.90
4435;DHT22;46552;52.150;8.428;2023-12-29T11:12:59;10.40;99.90
4435;DHT22;46552;52.150;8.428;2023-12-29T11:15:27;10.40;99.90
4435;DHT22;46552;52.150;8.428;2023-12-29T11:17:56;10.40;99.90
4435;DHT22;46552;52.150;8.428;2023-12-29T11:20:24;10.40;99.90
4435;DHT22;46552;52.150;8.428;2023-12-29T11:22:52;10.40;99.90
4435;DHT22;46552;52.150;8.428;2023-12-29T11:25:19;10.40;99.90
4435;DHT22;46552;52.150;8.428;2023-12-29T11:27:49;10.40;99.90
4435;DHT22;46552;52.150;8.428;2023-12-29T11:30:19;10.40;99.90
4435;DHT22;46552;52.150;8.428;2023-12-29T11:32:50;10.50;99.90
4435;DHT22;46552;52.150;8.428;2023-12-29T11:35:23;10.50;99.90
4435;DHT22;46552;52.150;8.428;2023-12-29T11:38:03;10.50;99.90
4435;DHT22;46552;52.150;8.428;2023-12-29T11:40:41;10.50;99.90
4435;DHT22;46552;52.150;8.428;2023-12-29T11:43:13;10.40;99.90
4435;DHT22;46552;52.150;8.428;2023-12-29T11:45:43;10.40;99.90
4435;DHT22;46552;52.150;8.428;2023-12-29T11:48:11;10.30;99.90
4435;DHT22;46552;52.150;8.428;2023-12-29T11:50:39;10.30;99.90
4435;DHT22;46552;52.150;8.428;2023-12-29T11:53:07;10.20;99.90
4435;DHT22;46552;52.150;8.428;2023-12-29T11:55:37;10.30;99.90
4435;DHT22;46552;52.150;8.428;2023-12-29T11:58:22;10.30;99.90
4435;DHT22;46552;52.150;8.428;2023-12-29T12:00:51;10.40;99.90
4435;DHT22;46552;52.150;8.428;2023-12-29T12:03:24;10.40;99.90
4435;DHT22;46552;52.150;8.428;2023-12-29T12:05:53;10.40;99.90
4435;DHT22;46552;52.150;8.428;2023-12-29T12:08:29;10.50;99.90
4435;DHT22;46552;52.150;8.428;2023-12-29T12:10:59;10.50;99.90
4435;DHT22;46552;52.150;8.428;2023-12-29T12:13:45;10.50;99.90
4435;DHT22;46552;52.150;8.428;2023-12-29T12:16:48;10.50;99.90
4435;DHT22;46552;52.150;8.428;2023-12-29T12:19:16;10.50;99.90
4435;DHT22;46552;52.150;8.428;2023-12-29T12:21:47;10.50;99.90
4435;DHT22;46552;52.150;8.428;2023-12-29T12:24:16;10.50;99.90
4435;DHT22;46552;52.150;8.428;2023-12-29T12:26:45;10.50;99.90
4435;DHT22;46552;52.150;8.428;2023-12-29T12:29:13;10.50;99.90
4435;DHT22;46552;52.150;8.428;2023-12-29T12:31:55;10.50;99.90
4435;DHT22;46552;52.150;8.428;2023-12-29T12:34:23;10.50;99.90
4435;DHT22;46552;52.150;8.428;2023-12-29T12:36:53;10.60;99.90
4435;DHT22;46552;52.150;8.428;2023-12-29T12:39:22;10.60;99.90
4435;DHT22;46552;52.150;8.428;2023-12-29T12:41:50;10.60;99.90
4435;DHT22;46552;52.150;8.428;2023-12-29T12:44:17;10.60;99.90
4435;DHT22;46552;52.150;8.428;2023-12-29T12:46:50;10.70;99.90
4435;DHT22;46552;52.150;8.428;2023-12-29T12:49:21;10.80;99.90
4435;DHT22;46552;52.150;8.428;2023-12-29T12:51:48;10.90;99.90
4435;DHT22;46552;52.150;8.428;2023-12-29T12:54:18;11.00;99.90
4435;DHT22;46552;52.150;8.428;2023-12-29T12:56:46;11.10;99.90
4435;DHT22;46552;52.150;8.428;2023-12-29T12:59:14;11.10;99.90
4435;DHT22;46552;52.150;8.428;2023-12-29T13:01:42;11.10;99.90
4435;DHT22;46552;52.150;8.428;2023-12-29T13:04:11;11.10;99.90
4435;DHT22;46552;52.150;8.428;2023-12-29T13:06:42;11.10;99.90
4435;DHT22;46552;52.150;8.428;2023-12-29T13:09:10;11.10;99.90
4435;DHT22;46552;52.150;8.428;2023-12-29T13:11:39;11.10;99.90
4435;DHT22;46552;52.150;8.428;2023-12-29T13:14:07;11.10;99.90
4435;DHT22;46552;52.150;8.428;2023-12-29T13:16:35;11.10;99.90
4435;DHT22;46552;52.150;8.428;2023-12-29T13:19:16;11.10;99.90
4435;DHT22;46552;52.150;8.428;2023-12-29T13:21:51;11.10;99.90
4435;DHT22;46552;52.150;8.428;2023-12-29T13:24:20;11.10;99.90
4435;DHT22;46552;52.150;8.428;2023-12-29T13:26:50;11.10;99.90
4435;DHT22;46552;52.150;8.428;2023-12-29T13:29:19;11.10;99.90
4435;DHT22;46552;52.150;8.428;2023-12-29T13:31:48;11.10;99.90
4435;DHT22;46552;52.150;8.428;2023-12-29T13:34:20;11.10;99.90
4435;DHT22;46552;52.150;8.428;2023-12-29T13:36:53;11.00;99.90
4435;DHT22;46552;52.150;8.428;2023-12-29T13:39:27;10.90;99.90
4435;DHT22;46552;52.150;8.428;2023-12-29T13:41:55;11.00;99.90
4435;DHT22;46552;52.150;8.428;2023-12-29T13:44:24;10.90;99.90
4435;DHT22;46552;52.150;8.428;2023-12-29T13:46:53;11.00;99.90
4435;DHT22;46552;52.150;8.428;2023-12-29T13:49:21;10.90;99.90
4435;DHT22;46552;52.150;8.428;2023-12-29T13:51:51;10.90;99.90
4435;DHT22;46552;52.150;8.428;2023-12-29T13:54:18;10.90;99.90
4435;DHT22;46552;52.150;8.428;2023-12-29T13:56:53;10.90;99.90
4435;DHT22;46552;52.150;8.428;2023-12-29T13:59:38;10.90;99.90
4435;DHT22;46552;52.150;8.428;2023-12-29T14:02:20;10.90;99.90
4435;DHT22;46552;52.150;8.428;2023-12-29T14:05:09;10.90;99.90
4435;DHT22;46552;52.150;8.428;2023-12-29T14:07:44;10.90;99.90
4435;DHT22;46552;52.150;8.428;2023-12-29T14:10:12;10.90;99.90
4435;DHT22;46552;52.150;8.428;2023-12-29T14:12:39;10.90;99.90
4435;DHT22;46552;52.150;8.428;2023-12-29T14:15:08;10.90;99.90
4435;DHT22;46552;52.150;8.428;2023-12-29T14:17:36;10.90;99.90
4435;DHT22;46552;52.150;8.428;2023-12-29T14:20:05;10.90;99.90
4435;DHT22;46552;52.150;8.428;2023-12-29T14:22:33;10.90;99.90
4435;DHT22;46552;52.150;8.428;2023-12-29T14:25:04;10.90;99.90
4435;DHT22;46552;52.150;8.428;2023-12-29T14:27:31;10.80;99.90
4435;DHT22;46552;52.150;8.428;2023-12-29T14:29:59;10.80;99.90
4435;DHT22;46552;52.150;8.428;2023-12-29T14:32:27;10.80;99.90
4435;DHT22;46552;52.150;8.428;2023-12-29T14:34:56;10.80;99.90
4435;DHT22;46552;52.150;8.428;2023-12-29T14:37:23;10.70;99.90
4435;DHT22;46552;52.150;8.428;2023-12-29T14:39:51;10.70;99.90
4435;DHT22;46552;52.150;8.428;2023-12-29T14:42:20;10.70;99.90
4435;DHT22;46552;52.150;8.428;2023-12-29T14:44:47;10.70;99.90
4435;DHT22;46552;52.150;8.428;2023-12-29T14:47:15;10.70;99.90
4435;DHT22;46552;52.150;8.428;2023-12-29T14:49:43;10.70;99.90
4435;DHT22;46552;52.150;8.428;2023-12-29T14:52:11;10.70;99.90
4435;DHT22;46552;52.150;8.428;2023-12-29T14:54:38;10.70;99.90
4435;DHT22;46552;52.150;8.428;2023-12-29T14:57:06;10.70;99.90
4435;DHT22;46552;52.150;8.428;2023-12-29T14:59:34;10.70;99.90
4435;DHT22;46552;52.150;8.428;2023-12-29T15:02:03;10.70;99.90
4435;DHT22;46552;52.150;8.428;2023-12-29T15:04:33;10.70;99.90
4435;DHT22;46552;52.150;8.428;2023-12-29T15:07:00;10.70;99.90
4435;DHT22;46552;52.150;8.428;2023-12-29T15:09:27;10.70;99.90
4435;DHT22;46552;52.150;8.428;2023-12-29T15:11:55;10.70;99.90
4435;DHT22;46552;52.150;8.428;2023-12-29T15:14:22;10.70;99.90
4435;DHT22;46552;52.150;8.428;2023-12-29T15:16:51;10.70;99.90
4435;DHT22;46552;52.150;8.428;2023-12-29T15:19:18;10.70;99.90
4435;DHT22;46552;52.150;8.428;2023-12-29T15:21:46;10.60;99.90
4435;DHT22;46552;52.150;8.428;2023-12-29T15:24:13;10.60;99.90
4435;DHT22;46552;52.150;8.428;2023-12-29T15:26:41;10.60;99.90
4435;DHT22;46552;52.150;8.428;2023-12-29T15:29:09;10.60;99.90
4435;DHT22;46552;52.150;8.428;2023-12-29T15:31:36;10.60;99.90
4435;DHT22;46552;52.150;8.428;2023-12-29T15:34:06;10.50;99.90
4435;DHT22;46552;52.150;8.428;2023-12-29T15:36:33;10.50;99.90
4435;DHT22;46552;52.150;8.428;2023-12-29T15:39:01;10.50;99.90
4435;DHT22;46552;52.150;8.428;2023-12-29T15:41:31;10.50;99.90
4435;DHT22;46552;52.150;8.428;2023-12-29T15:43:59;10.50;99.90
4435;DHT22;46552;52.150;8.428;2023-12-29T15:46:29;10.40;99.90
4435;DHT22;46552;52.150;8.428;2023-12-29T15:48:56;10.40;99.90
4435;DHT22;46552;52.150;8.428;2023-12-29T15:51:28;10.30;99.90
4435;DHT22;46552;52.150;8.428;2023-12-29T15:53:56;10.30;99.90
4435;DHT22;46552;52.150;8.428;2023-12-29T15:56:23;10.30;99.90
4435;DHT22;46552;52.150;8.428;2023-12-29T15:58:51;10.20;99.90
4435;DHT22;46552;52.150;8.428;2023-12-29T16:01:22;10.10;99.90